createdAt,value
2022-10-09T00:00:00.659Z,19.73
2022-10-09T00:02:27.445Z,19.72
2022-10-09T00:04:53.796Z,19.71
2022-10-09T00:07:20.104Z,19.70
2022-10-09T00:09:46.502Z,19.70
2022-10-09T00:12:12.754Z,19.70
2022-10-09T00:14:39.085Z,19.67
2022-10-09T00:17:05.459Z,19.68
2022-10-09T00:19:31.923Z,19.66
2022-10-09T00:21:58.279Z,19.67
2022-10-09T00:24:24.586Z,19.67
2022-10-09T00:26:51.067Z,19.67
2022-10-09T00:29:17.694Z,19.66
2022-10-09T00:31:44.238Z,19.65
2022-10-09T00:34:10.554Z,19.65
2022-10-09T00:36:36.950Z,19.65
2022-10-09T00:39:03.259Z,19.63
2022-10-09T00:41:29.562Z,19.62
2022-10-09T00:43:55.930Z,19.62
2022-10-09T00:46:22.515Z,19.59
2022-10-09T00:48:48.942Z,19.60
2022-10-09T00:51:15.267Z,19.58
2022-10-09T00:53:41.557Z,19.58
2022-10-09T00:56:07.910Z,19.57
2022-10-09T00:58:34.337Z,19.57
2022-10-09T01:01:00.758Z,19.56
2022-10-09T01:03:27.193Z,19.55
2022-10-09T01:05:55.361Z,19.55
2022-10-09T01:08:22.126Z,19.54
2022-10-09T01:10:48.726Z,19.53
2022-10-09T01:13:15.499Z,19.54
2022-10-09T01:15:42.197Z,19.52
2022-10-09T01:18:08.837Z,19.51
2022-10-09T01:20:35.287Z,19.50
2022-10-09T01:23:01.770Z,19.49
2022-10-09T01:25:28.067Z,19.49
2022-10-09T01:27:54.416Z,19.48
2022-10-09T01:30:20.910Z,19.47
2022-10-09T01:32:47.447Z,19.45
2022-10-09T01:35:14.189Z,19.44
2022-10-09T01:37:40.639Z,19.43
2022-10-09T01:40:06.912Z,19.45
2022-10-09T01:42:33.274Z,19.43
2022-10-09T01:44:59.843Z,19.42
2022-10-09T01:47:26.455Z,19.42
2022-10-09T01:49:52.820Z,19.41
2022-10-09T01:52:19.253Z,19.38
2022-10-09T01:54:45.598Z,19.39
2022-10-09T01:57:12.049Z,19.38
2022-10-09T01:59:38.346Z,19.37
2022-10-09T02:02:04.690Z,19.37
2022-10-09T02:04:31.387Z,19.36
2022-10-09T02:06:57.796Z,19.36
2022-10-09T02:09:24.144Z,19.36
2022-10-09T02:11:50.439Z,19.32
2022-10-09T02:14:16.760Z,19.32
2022-10-09T02:16:43.314Z,19.32
2022-10-09T02:19:09.956Z,19.31
2022-10-09T02:21:36.421Z,19.31
2022-10-09T02:24:02.811Z,19.30
2022-10-09T02:26:29.171Z,19.30
2022-10-09T02:28:55.614Z,19.29
2022-10-09T02:31:22.071Z,19.28
2022-10-09T02:33:48.441Z,19.26
2022-10-09T02:36:14.775Z,19.25
2022-10-09T02:38:41.159Z,19.26
2022-10-09T02:41:07.523Z,19.25
2022-10-09T02:43:33.788Z,19.23
2022-10-09T02:46:00.166Z,19.24
2022-10-09T02:48:27.132Z,19.22
2022-10-09T02:50:54.817Z,19.22
2022-10-09T02:53:21.298Z,19.20
2022-10-09T02:55:47.585Z,19.21
2022-10-09T02:58:13.962Z,19.19
2022-10-09T03:00:40.301Z,19.18
2022-10-09T03:03:06.898Z,19.19
2022-10-09T03:05:33.489Z,19.18
2022-10-09T03:08:00.149Z,19.16
2022-10-09T03:10:26.621Z,19.15
2022-10-09T03:12:52.992Z,19.15
2022-10-09T03:15:19.294Z,19.15
2022-10-09T03:17:45.557Z,19.13
2022-10-09T03:20:11.866Z,19.12
2022-10-09T03:22:38.175Z,19.12
2022-10-09T03:25:04.451Z,19.10
2022-10-09T03:27:30.711Z,19.10
2022-10-09T03:29:57.114Z,19.08
2022-10-09T03:32:23.495Z,19.09
2022-10-09T03:34:49.838Z,19.08
2022-10-09T03:37:16.101Z,19.07
2022-10-09T03:39:42.524Z,19.06
2022-10-09T03:42:08.847Z,19.07
2022-10-09T03:44:35.161Z,19.05
2022-10-09T03:47:01.574Z,19.05
2022-10-09T03:49:27.997Z,19.03
2022-10-09T03:51:54.248Z,19.03
2022-10-09T03:54:20.557Z,19.03
2022-10-09T03:56:46.905Z,19.02
2022-10-09T03:59:13.202Z,19.02
2022-10-09T04:01:39.515Z,19.02
2022-10-09T04:04:05.786Z,19.00
2022-10-09T04:06:32.115Z,19.00
2022-10-09T04:08:58.477Z,18.99
2022-10-09T04:11:24.792Z,18.98
2022-10-09T04:13:51.090Z,18.98
2022-10-09T04:16:17.593Z,18.97
2022-10-09T04:18:43.938Z,18.97
2022-10-09T04:21:10.249Z,18.96
2022-10-09T04:23:36.562Z,18.95
2022-10-09T04:26:02.863Z,18.93
2022-10-09T04:28:29.456Z,18.93
2022-10-09T04:30:55.815Z,18.91
2022-10-09T04:33:22.109Z,18.92
2022-10-09T04:35:48.459Z,18.91
2022-10-09T04:38:14.739Z,18.91
2022-10-09T04:40:41.074Z,18.91
2022-10-09T04:43:07.346Z,18.88
2022-10-09T04:45:33.680Z,18.90
2022-10-09T04:48:00.249Z,18.88
2022-10-09T04:50:26.683Z,18.87
2022-10-09T04:52:52.943Z,18.86
2022-10-09T04:55:19.312Z,18.86
2022-10-09T04:57:45.568Z,18.85
2022-10-09T05:00:11.849Z,18.85
2022-10-09T05:02:38.152Z,18.86
2022-10-09T05:05:04.437Z,18.85
2022-10-09T05:07:30.725Z,18.85
2022-10-09T05:09:57.009Z,18.84
2022-10-09T05:12:23.342Z,18.82
2022-10-09T05:14:49.620Z,18.82
2022-10-09T05:17:17.927Z,18.81
2022-10-09T05:19:47.099Z,18.82
2022-10-09T05:22:13.514Z,18.81
2022-10-09T05:24:39.882Z,18.82
2022-10-09T05:27:06.221Z,18.80
2022-10-09T05:29:32.743Z,18.80
2022-10-09T05:31:59.125Z,18.81
2022-10-09T05:34:25.562Z,18.81
2022-10-09T05:36:51.882Z,18.80
2022-10-09T05:39:18.361Z,18.80
2022-10-09T05:41:45.427Z,18.81
2022-10-09T05:44:11.853Z,18.79
2022-10-09T05:46:38.153Z,18.78
2022-10-09T05:49:04.435Z,18.76
2022-10-09T05:51:30.846Z,18.77
2022-10-09T05:53:59.014Z,18.75
2022-10-09T05:56:25.728Z,18.75
2022-10-09T05:58:52.012Z,18.73
2022-10-09T06:01:18.625Z,18.74
2022-10-09T06:03:45.113Z,18.74
2022-10-09T06:06:11.558Z,18.72
2022-10-09T06:08:37.853Z,18.73
2022-10-09T06:11:04.254Z,18.73
2022-10-09T06:13:30.585Z,18.73
2022-10-09T06:15:56.925Z,18.72
2022-10-09T06:18:23.240Z,18.72
2022-10-09T06:20:49.516Z,18.71
2022-10-09T06:23:15.781Z,18.70
2022-10-09T06:25:42.089Z,18.70
2022-10-09T06:28:08.541Z,18.66
2022-10-09T06:30:38.498Z,18.65
2022-10-09T06:33:05.265Z,18.73
2022-10-09T06:35:32.037Z,18.66
2022-10-09T06:37:58.568Z,18.64
2022-10-09T06:40:24.915Z,18.66
2022-10-09T06:42:51.800Z,18.69
2022-10-09T06:45:18.388Z,18.65
2022-10-09T06:47:45.766Z,18.66
2022-10-09T06:50:12.080Z,18.70
2022-10-09T06:52:38.363Z,18.67
2022-10-09T06:55:04.731Z,18.64
2022-10-09T06:57:31.050Z,18.67
2022-10-09T06:59:58.162Z,18.69
2022-10-09T07:02:24.699Z,18.69
2022-10-09T07:04:51.170Z,18.70
2022-10-09T07:07:17.923Z,18.71
2022-10-09T07:09:44.566Z,18.72
2022-10-09T07:12:10.891Z,18.73
2022-10-09T07:14:37.204Z,18.73
2022-10-09T07:17:03.703Z,18.75
2022-10-09T07:19:30.070Z,18.75
2022-10-09T07:21:56.395Z,18.76
2022-10-09T07:24:22.711Z,18.76
2022-10-09T07:26:49.268Z,18.76
2022-10-09T07:29:15.628Z,18.76
2022-10-09T07:31:42.221Z,18.77
2022-10-09T07:34:08.684Z,18.78
2022-10-09T07:36:35.078Z,18.77
2022-10-09T07:39:01.413Z,18.77
2022-10-09T07:41:27.707Z,18.77
2022-10-09T07:43:53.975Z,18.77
2022-10-09T07:46:20.658Z,18.78
2022-10-09T07:48:47.044Z,18.79
2022-10-09T07:51:13.670Z,18.78
2022-10-09T07:53:40.438Z,18.79
2022-10-09T07:56:07.051Z,18.79
2022-10-09T07:58:33.650Z,18.80
2022-10-09T08:00:59.988Z,18.80
2022-10-09T08:03:26.536Z,18.80
2022-10-09T08:05:53.042Z,18.80
2022-10-09T08:08:19.615Z,18.82
2022-10-09T08:10:46.279Z,18.85
2022-10-09T08:13:12.580Z,18.86
2022-10-09T08:15:38.920Z,18.87
2022-10-09T08:18:05.380Z,18.89
2022-10-09T08:20:31.662Z,18.88
2022-10-09T08:22:58.032Z,18.89
2022-10-09T08:25:24.688Z,18.91
2022-10-09T08:27:51.207Z,18.90
2022-10-09T08:30:17.501Z,18.92
2022-10-09T08:32:45.902Z,18.92
2022-10-09T08:35:12.758Z,18.92
2022-10-09T08:37:39.106Z,18.92
2022-10-09T08:40:05.827Z,18.93
2022-10-09T08:42:32.203Z,18.95
2022-10-09T08:44:58.596Z,18.93
2022-10-09T08:47:24.977Z,18.95
2022-10-09T08:49:51.421Z,18.94
2022-10-09T08:52:17.790Z,18.94
2022-10-09T08:54:44.266Z,18.95
2022-10-09T08:57:10.586Z,18.96
2022-10-09T08:59:36.895Z,18.94
2022-10-09T09:02:04.519Z,18.95
2022-10-09T09:04:30.933Z,18.96
2022-10-09T09:06:58.624Z,18.97
2022-10-09T09:09:25.185Z,18.96
2022-10-09T09:11:51.560Z,18.96
2022-10-09T09:14:17.977Z,18.95
2022-10-09T09:16:44.324Z,18.95
2022-10-09T09:19:10.645Z,18.95
2022-10-09T09:21:37.138Z,18.97
2022-10-09T09:24:03.832Z,19.00
2022-10-09T09:26:30.283Z,19.01
2022-10-09T09:28:56.860Z,19.01
2022-10-09T09:31:23.290Z,19.03
2022-10-09T09:33:50.341Z,19.05
2022-10-09T09:36:16.622Z,19.05
2022-10-09T09:39:12.606Z,19.06
2022-10-09T09:41:29.299Z,19.13
2022-10-09T09:43:55.849Z,19.15
2022-10-09T09:46:22.387Z,19.14
2022-10-09T09:48:49.050Z,19.15
2022-10-09T09:51:27.857Z,19.14
2022-10-09T09:53:55.010Z,19.18
2022-10-09T09:56:21.826Z,19.19
2022-10-09T09:58:48.102Z,19.20
2022-10-09T10:01:14.519Z,19.14
2022-10-09T10:03:40.893Z,19.15
2022-10-09T10:06:07.160Z,19.19
2022-10-09T10:08:33.537Z,19.19
2022-10-09T10:10:59.809Z,19.18
2022-10-09T10:13:26.176Z,19.18
2022-10-09T10:15:52.590Z,19.18
2022-10-09T10:18:18.947Z,19.18
2022-10-09T10:20:45.505Z,19.16
2022-10-09T10:23:11.785Z,19.18
2022-10-09T10:25:38.095Z,19.17
2022-10-09T10:28:04.800Z,19.16
2022-10-09T10:30:31.215Z,19.16
2022-10-09T10:32:57.520Z,19.16
2022-10-09T10:35:23.905Z,19.16
2022-10-09T10:37:50.456Z,19.15
2022-10-09T10:40:17.034Z,19.16
2022-10-09T10:42:43.517Z,19.15
2022-10-09T10:45:09.891Z,19.15
2022-10-09T10:47:36.124Z,19.13
2022-10-09T10:50:02.522Z,19.14
2022-10-09T10:52:28.858Z,19.12
2022-10-09T10:54:55.248Z,19.12
2022-10-09T10:57:21.726Z,19.12
2022-10-09T10:59:48.026Z,19.10
2022-10-09T11:02:14.544Z,19.10
2022-10-09T11:04:40.866Z,19.10
2022-10-09T11:07:07.176Z,19.10
2022-10-09T11:09:33.455Z,19.09
2022-10-09T11:12:00.110Z,19.09
2022-10-09T11:14:26.427Z,19.08
2022-10-09T11:16:52.697Z,19.08
2022-10-09T11:19:19.122Z,19.07
2022-10-09T11:21:45.445Z,19.06
2022-10-09T11:24:11.759Z,19.08
2022-10-09T11:26:38.093Z,19.08
2022-10-09T11:29:04.493Z,19.07
2022-10-09T11:31:31.008Z,19.05
2022-10-09T11:33:57.340Z,19.06
2022-10-09T11:36:23.651Z,19.05
2022-10-09T11:38:49.938Z,19.03
2022-10-09T11:41:16.222Z,19.02
2022-10-09T11:43:42.553Z,19.03
2022-10-09T11:46:09.066Z,19.03
2022-10-09T11:48:36.281Z,19.03
2022-10-09T11:51:02.609Z,19.03
2022-10-09T11:53:28.860Z,19.02
2022-10-09T11:55:55.322Z,19.03
2022-10-09T11:58:22.819Z,19.01
2022-10-09T12:00:49.301Z,19.01
2022-10-09T12:03:15.752Z,19.01
2022-10-09T12:05:42.145Z,19.01
2022-10-09T12:08:08.508Z,18.99
2022-10-09T12:10:34.795Z,19.00
2022-10-09T12:13:01.372Z,18.99
2022-10-09T12:15:27.696Z,18.97
2022-10-09T12:17:54.108Z,18.99
2022-10-09T12:20:20.342Z,18.97
2022-10-09T12:23:01.482Z,18.97
2022-10-09T12:25:33.094Z,18.96
2022-10-09T12:27:59.455Z,18.95
2022-10-09T12:30:25.719Z,18.95
2022-10-09T12:32:53.114Z,18.95
2022-10-09T12:35:19.735Z,18.94
2022-10-09T12:37:46.041Z,18.95
2022-10-09T12:40:12.383Z,18.93
2022-10-09T12:42:38.699Z,18.93
2022-10-09T12:45:05.111Z,18.94
2022-10-09T12:47:31.452Z,18.93
2022-10-09T12:49:57.802Z,18.94
2022-10-09T12:52:24.070Z,18.92
2022-10-09T12:54:50.382Z,18.92
2022-10-09T12:57:17.228Z,18.91
2022-10-09T12:59:43.522Z,18.90
2022-10-09T13:02:09.942Z,18.89
2022-10-09T13:04:36.302Z,18.86
2022-10-09T13:07:02.599Z,18.84
2022-10-09T13:09:28.927Z,18.85
2022-10-09T13:11:55.483Z,18.86
2022-10-09T13:14:21.842Z,18.84
2022-10-09T13:16:48.136Z,18.84
2022-10-09T13:19:14.463Z,18.84
2022-10-09T13:21:40.740Z,18.84
2022-10-09T13:24:07.040Z,18.83
2022-10-09T13:26:33.339Z,18.83
2022-10-09T13:28:59.614Z,18.83
2022-10-09T13:31:25.919Z,18.83
2022-10-09T13:33:52.166Z,18.82
2022-10-09T13:36:18.487Z,18.84
2022-10-09T13:38:45.034Z,18.83
2022-10-09T13:41:11.362Z,18.84
2022-10-09T13:43:37.685Z,18.83
2022-10-09T13:46:04.014Z,18.83
2022-10-09T13:48:30.401Z,18.84
2022-10-09T13:50:56.687Z,18.83
2022-10-09T13:53:24.061Z,18.84
2022-10-09T13:55:50.305Z,18.83
2022-10-09T13:58:16.577Z,18.84
2022-10-09T14:00:43.034Z,18.83
2022-10-09T14:03:09.562Z,18.84
2022-10-09T14:05:36.130Z,18.84
2022-10-09T14:08:02.467Z,18.86
2022-10-09T14:10:28.890Z,18.87
2022-10-09T14:12:55.190Z,18.89
2022-10-09T14:15:21.648Z,18.77
2022-10-09T14:17:48.379Z,18.71
2022-10-09T14:20:14.909Z,18.74
2022-10-09T14:22:41.192Z,18.77
2022-10-09T14:25:07.519Z,18.77
2022-10-09T14:30:03.563Z,18.80
2022-10-09T14:32:29.908Z,18.81
2022-10-09T14:34:56.259Z,18.83
2022-10-09T14:37:40.451Z,18.83
2022-10-09T14:40:07.829Z,18.84
2022-10-09T14:42:34.162Z,18.85
2022-10-09T14:45:00.745Z,18.87
2022-10-09T14:47:27.005Z,18.87
2022-10-09T14:49:57.518Z,18.87
2022-10-09T14:52:25.160Z,18.88
2022-10-09T14:54:52.835Z,18.88
2022-10-09T14:57:19.901Z,18.89
2022-10-09T14:59:46.196Z,18.90
2022-10-09T15:02:12.540Z,18.89
2022-10-09T15:04:38.884Z,18.89
2022-10-09T15:07:05.274Z,18.90
2022-10-09T15:09:31.782Z,18.89
2022-10-09T15:11:58.259Z,18.88
2022-10-09T15:14:24.659Z,18.89
2022-10-09T15:16:50.965Z,18.89
2022-10-09T15:19:17.277Z,18.89
2022-10-09T15:21:43.542Z,18.88
2022-10-09T15:24:09.885Z,18.88
2022-10-09T15:26:36.134Z,18.88
2022-10-09T15:29:02.475Z,18.85
2022-10-09T15:31:28.821Z,18.86
2022-10-09T15:33:55.173Z,18.83
2022-10-09T15:36:21.773Z,18.84
2022-10-09T15:38:48.165Z,18.83
2022-10-09T15:41:14.413Z,18.82
2022-10-09T15:43:41.277Z,18.81
2022-10-09T15:46:07.737Z,18.81
2022-10-09T15:48:34.182Z,18.80
2022-10-09T15:51:00.620Z,18.79
2022-10-09T15:53:26.872Z,18.79
2022-10-09T15:55:53.150Z,18.77
2022-10-09T15:58:19.530Z,18.78
2022-10-09T16:00:46.149Z,18.78
2022-10-09T16:03:12.421Z,18.77
2022-10-09T16:05:39.550Z,18.77
2022-10-09T16:08:05.914Z,18.77
2022-10-09T16:10:32.378Z,18.77
2022-10-09T16:12:58.689Z,18.77
2022-10-09T16:15:25.229Z,18.78
2022-10-09T16:17:51.771Z,18.75
2022-10-09T16:20:18.029Z,18.76
2022-10-09T16:22:44.406Z,18.75
2022-10-09T16:25:10.709Z,18.75
2022-10-09T16:27:37.356Z,18.75
2022-10-09T16:30:03.710Z,18.78
2022-10-09T16:32:30.014Z,18.75
2022-10-09T16:34:56.315Z,18.75
2022-10-09T16:37:22.645Z,18.77
2022-10-09T16:39:48.967Z,18.79
2022-10-09T16:42:15.551Z,18.78
2022-10-09T16:44:41.817Z,18.78
2022-10-09T16:47:08.152Z,18.78
2022-10-09T16:49:34.528Z,18.76
2022-10-09T16:52:00.855Z,18.77
2022-10-09T16:54:27.330Z,18.78
2022-10-09T16:56:53.673Z,18.78
2022-10-09T16:59:19.985Z,18.78
2022-10-09T17:01:46.339Z,18.77
2022-10-09T17:04:12.706Z,18.77
2022-10-09T17:06:39.087Z,18.77
2022-10-09T17:09:08.899Z,18.78
2022-10-09T17:11:37.593Z,18.78
2022-10-09T17:14:03.852Z,18.76
2022-10-09T17:16:30.149Z,18.78
2022-10-09T17:18:56.534Z,18.77
2022-10-09T17:21:23.038Z,18.76
2022-10-09T17:23:49.343Z,18.76
2022-10-09T17:26:15.815Z,18.76
2022-10-09T17:28:42.337Z,18.77
2022-10-09T17:31:08.786Z,18.74
2022-10-09T17:33:35.143Z,18.73
2022-10-09T17:36:01.453Z,18.74
2022-10-09T17:38:27.816Z,18.75
2022-10-09T17:40:54.091Z,18.74
2022-10-09T17:43:20.677Z,18.73
2022-10-09T17:45:47.055Z,18.73
2022-10-09T17:48:13.371Z,18.72
2022-10-09T17:50:39.762Z,18.74
2022-10-09T17:53:06.025Z,18.73
2022-10-09T17:55:32.365Z,18.73
2022-10-09T17:57:58.694Z,18.73
2022-10-09T18:00:25.049Z,18.73
2022-10-09T18:02:51.402Z,18.71
2022-10-09T18:05:17.808Z,18.72
2022-10-09T18:07:44.163Z,18.71
2022-10-09T18:10:10.451Z,18.70
2022-10-09T18:12:36.853Z,18.71
2022-10-09T18:15:03.110Z,18.71
2022-10-09T18:17:29.406Z,18.70
2022-10-09T18:19:55.905Z,18.70
2022-10-09T18:22:22.236Z,18.70
2022-10-09T18:24:48.660Z,18.70
2022-10-09T18:27:15.280Z,18.70
2022-10-09T18:29:41.533Z,18.70
2022-10-09T18:32:07.773Z,18.69
2022-10-09T18:34:38.947Z,18.70
2022-10-09T18:37:06.110Z,18.69
2022-10-09T18:39:33.498Z,18.67
2022-10-09T18:41:59.864Z,18.67
2022-10-09T18:44:26.108Z,18.67
2022-10-09T18:46:52.373Z,18.67
2022-10-09T18:49:18.731Z,18.67
2022-10-09T18:51:45.017Z,18.66
2022-10-09T18:54:15.776Z,18.65
2022-10-09T18:56:44.282Z,18.65
2022-10-09T18:59:13.044Z,18.66
2022-10-09T19:01:39.510Z,18.64
2022-10-09T19:04:05.907Z,18.65
2022-10-09T19:06:32.191Z,18.63
2022-10-09T19:08:58.724Z,18.64
2022-10-09T19:11:25.046Z,18.64
2022-10-09T19:13:52.181Z,18.64
2022-10-09T19:16:18.547Z,18.63
2022-10-09T19:18:44.906Z,18.62
2022-10-09T19:21:11.272Z,18.62
2022-10-09T19:23:37.641Z,18.61
2022-10-09T19:26:04.015Z,18.63
2022-10-09T19:28:30.636Z,18.60
2022-10-09T19:30:57.087Z,18.61
2022-10-09T19:33:23.364Z,18.60
2022-10-09T19:35:49.642Z,18.58
2022-10-09T19:38:15.984Z,18.58
2022-10-09T19:40:42.350Z,18.58
2022-10-09T19:43:08.681Z,18.57
2022-10-09T19:45:35.297Z,18.56
2022-10-09T19:48:01.615Z,18.57
2022-10-09T19:50:27.940Z,18.56
2022-10-09T19:52:54.342Z,18.57
2022-10-09T19:55:20.659Z,18.58
2022-10-09T19:57:47.273Z,18.57
2022-10-09T20:00:13.905Z,18.56
2022-10-09T20:02:40.419Z,18.56
2022-10-09T20:05:06.697Z,18.54
2022-10-09T20:07:33.069Z,18.55
2022-10-09T20:09:59.359Z,18.54
2022-10-09T20:12:26.183Z,18.54
2022-10-09T20:14:52.509Z,18.54
2022-10-09T20:17:18.842Z,18.54
2022-10-09T20:19:45.832Z,18.53
2022-10-09T20:22:12.209Z,18.53
2022-10-09T20:24:38.495Z,18.52
2022-10-09T20:27:04.771Z,18.53
2022-10-09T20:29:31.229Z,18.52
2022-10-09T20:31:59.201Z,18.52
2022-10-09T20:34:25.630Z,18.52
2022-10-09T20:36:52.242Z,18.50
2022-10-09T20:39:18.568Z,18.51
2022-10-09T20:41:44.886Z,18.50
2022-10-09T20:44:11.593Z,18.49
2022-10-09T20:46:38.010Z,18.50
2022-10-09T20:49:04.360Z,18.50
2022-10-09T20:51:30.666Z,18.50
2022-10-09T20:53:57.425Z,18.50
2022-10-09T20:56:23.758Z,18.50
2022-10-09T20:58:50.055Z,18.48
2022-10-09T21:01:16.436Z,18.50
2022-10-09T21:03:42.771Z,18.49
2022-10-09T21:06:09.181Z,18.49
2022-10-09T21:08:35.469Z,18.48
2022-10-09T21:11:01.770Z,18.48
2022-10-09T21:13:28.048Z,18.48
2022-10-09T21:15:55.312Z,18.48
2022-10-09T21:18:21.636Z,18.48
2022-10-09T21:20:47.985Z,18.48
2022-10-09T21:23:14.382Z,18.48
2022-10-09T21:25:40.690Z,18.47
2022-10-09T21:28:07.197Z,18.47
2022-10-09T21:30:36.785Z,18.48
2022-10-09T21:33:05.409Z,18.48
2022-10-09T21:35:31.679Z,18.47
2022-10-09T21:37:58.457Z,18.47
2022-10-09T21:40:24.760Z,18.45
2022-10-09T21:42:51.347Z,18.45
2022-10-09T21:45:17.764Z,18.45
2022-10-09T21:47:44.104Z,18.44
2022-10-09T21:50:10.558Z,18.44
2022-10-09T21:52:36.990Z,18.45
2022-10-09T21:55:03.287Z,18.42
2022-10-09T21:57:29.533Z,18.43
2022-10-09T21:59:55.986Z,18.42
2022-10-09T22:02:22.415Z,18.42
2022-10-09T22:04:48.761Z,18.43
2022-10-09T22:07:15.031Z,18.42
2022-10-09T22:09:41.403Z,18.42
2022-10-09T22:12:07.981Z,18.41
2022-10-09T22:14:34.331Z,18.41
2022-10-09T22:17:00.649Z,18.41
2022-10-09T22:19:27.284Z,18.40
2022-10-09T22:21:53.572Z,18.40
2022-10-09T22:24:19.858Z,18.42
2022-10-09T22:26:46.101Z,18.38
2022-10-09T22:29:12.372Z,18.39
2022-10-09T22:31:38.684Z,18.38
2022-10-09T22:34:05.064Z,18.39
2022-10-09T22:36:31.341Z,18.37
2022-10-09T22:38:57.618Z,18.39
2022-10-09T22:41:23.900Z,18.40
2022-10-09T22:43:50.402Z,18.39
2022-10-09T22:46:16.924Z,18.40
2022-10-09T22:48:43.216Z,18.38
2022-10-09T22:51:09.494Z,18.39
2022-10-09T22:53:35.787Z,18.39
2022-10-09T22:56:02.085Z,18.39
2022-10-09T22:58:28.401Z,18.39
2022-10-09T23:00:54.904Z,18.38
2022-10-09T23:03:21.743Z,18.38
2022-10-09T23:05:48.048Z,18.37
2022-10-09T23:08:14.383Z,18.37
2022-10-09T23:10:40.747Z,18.35
2022-10-09T23:13:07.147Z,18.37
2022-10-09T23:15:33.434Z,18.35
2022-10-09T23:17:59.750Z,18.36
2022-10-09T23:20:26.045Z,18.35
2022-10-09T23:22:52.836Z,18.36
2022-10-09T23:25:19.550Z,18.35
2022-10-09T23:27:45.882Z,18.35
2022-10-09T23:30:12.198Z,18.37
2022-10-09T23:32:38.544Z,18.38
2022-10-09T23:35:05.022Z,18.37
2022-10-09T23:37:31.321Z,18.37
2022-10-09T23:39:57.791Z,18.36
2022-10-09T23:42:24.149Z,18.38
2022-10-09T23:44:50.421Z,18.36
2022-10-09T23:47:16.734Z,18.36
2022-10-09T23:49:43.044Z,18.36
2022-10-09T23:52:09.335Z,18.36
2022-10-09T23:54:35.638Z,18.36
2022-10-09T23:57:01.977Z,18.37
2022-10-09T23:59:28.248Z,18.34
